sensor_id;sensor_type;location;lat;lon;timestamp;pressure;altitude;pressure_sealevel;temperature
77728;BMP280;68312;53.502;10.030;2023-08-07T00:00:11;100587.31;;;16.11
77728;BMP280;68312;53.502;10.030;2023-08-07T00:02:37;100586.50;;;16.07
77728;BMP280;68312;53.502;10.030;2023-08-07T00:05:03;100581.84;;;16.01
77728;BMP280;68312;53.502;10.030;2023-08-07T00:07:29;100585.59;;;15.96
77728;BMP280;68312;53.502;10.030;2023-08-07T00:09:54;100576.06;;;15.95
77728;BMP280;68312;53.502;10.030;2023-08-07T00:12:19;100571.50;;;15.92
77728;BMP280;68312;53.502;10.030;2023-08-07T00:14:47;100578.63;;;15.88
77728;BMP280;68312;53.502;10.030;2023-08-07T00:17:15;100576.63;;;15.82
77728;BMP280;68312;53.502;10.030;2023-08-07T00:19:41;100580.69;;;15.76
77728;BMP280;68312;53.502;10.030;2023-08-07T00:22:06;100574.22;;;15.74
77728;BMP280;68312;53.502;10.030;2023-08-07T00:24:31;100577.19;;;15.72
77728;BMP280;68312;53.502;10.030;2023-08-07T00:26:57;100577.09;;;15.65
77728;BMP280;68312;53.502;10.030;2023-08-07T00:29:22;100572.13;;;15.64
77728;BMP280;68312;53.502;10.030;2023-08-07T00:31:48;100568.78;;;15.67
77728;BMP280;68312;53.502;10.030;2023-08-07T00:34:13;100570.69;;;15.66
77728;BMP280;68312;53.502;10.030;2023-08-07T00:36:38;100569.84;;;15.62
77728;BMP280;68312;53.502;10.030;2023-08-07T00:39:04;100573.25;;;15.63
77728;BMP280;68312;53.502;10.030;2023-08-07T00:41:29;100576.03;;;15.70
77728;BMP280;68312;53.502;10.030;2023-08-07T00:43:55;100574.22;;;15.74
77728;BMP280;68312;53.502;10.030;2023-08-07T00:46:20;100571.91;;;15.72
77728;BMP280;68312;53.502;10.030;2023-08-07T00:48:46;100581.41;;;15.73
77728;BMP280;68312;53.502;10.030;2023-08-07T00:51:12;100573.50;;;15.77
77728;BMP280;68312;53.502;10.030;2023-08-07T00:53:38;100572.81;;;15.79
77728;BMP280;68312;53.502;10.030;2023-08-07T00:56:05;100572.38;;;15.78
77728;BMP280;68312;53.502;10.030;2023-08-07T00:58:32;100570.22;;;15.83
77728;BMP280;68312;53.502;10.030;2023-08-07T01:00:58;100570.22;;;15.83
77728;BMP280;68312;53.502;10.030;2023-08-07T01:03:24;100576.16;;;15.77
77728;BMP280;68312;53.502;10.030;2023-08-07T01:05:49;100566.56;;;15.69
77728;BMP280;68312;53.502;10.030;2023-08-07T01:08:15;100572.56;;;15.66
77728;BMP280;68312;53.502;10.030;2023-08-07T01:13:54;100574.09;;;15.67
77728;BMP280;68312;53.502;10.030;2023-08-07T01:16:37;100571.44;;;15.67
77728;BMP280;68312;53.502;10.030;2023-08-07T01:19:19;100560.22;;;15.73
77728;BMP280;68312;53.502;10.030;2023-08-07T01:21:49;100565.56;;;15.77
77728;BMP280;68312;53.502;10.030;2023-08-07T01:24:15;100559.88;;;15.75
77728;BMP280;68312;53.502;10.030;2023-08-07T01:26:42;100568.09;;;15.70
77728;BMP280;68312;53.502;10.030;2023-08-07T01:29:23;100560.44;;;15.65
77728;BMP280;68312;53.502;10.030;2023-08-07T01:31:57;100557.00;;;15.61
77728;BMP280;68312;53.502;10.030;2023-08-07T01:34:25;100558.97;;;15.67
77728;BMP280;68312;53.502;10.030;2023-08-07T01:36:53;100549.03;;;15.61
77728;BMP280;68312;53.502;10.030;2023-08-07T01:39:20;100548.63;;;15.59
77728;BMP280;68312;53.502;10.030;2023-08-07T01:41:47;100558.78;;;15.57
77728;BMP280;68312;53.502;10.030;2023-08-07T01:44:13;100551.13;;;15.52
77728;BMP280;68312;53.502;10.030;2023-08-07T01:46:39;100548.72;;;15.44
77728;BMP280;68312;53.502;10.030;2023-08-07T01:49:04;100541.84;;;15.39
77728;BMP280;68312;53.502;10.030;2023-08-07T01:51:30;100547.78;;;15.33
77728;BMP280;68312;53.502;10.030;2023-08-07T01:53:55;100552.94;;;15.26
77728;BMP280;68312;53.502;10.030;2023-08-07T01:56:21;100551.34;;;15.22
77728;BMP280;68312;53.502;10.030;2023-08-07T01:58:46;100552.38;;;15.17
77728;BMP280;68312;53.502;10.030;2023-08-07T02:01:11;100547.69;;;15.07
77728;BMP280;68312;53.502;10.030;2023-08-07T02:03:37;100544.63;;;15.05
77728;BMP280;68312;53.502;10.030;2023-08-07T02:06:02;100546.19;;;15.10
77728;BMP280;68312;53.502;10.030;2023-08-07T02:08:28;100547.28;;;15.09
77728;BMP280;68312;53.502;10.030;2023-08-07T02:10:53;100549.59;;;15.10
77728;BMP280;68312;53.502;10.030;2023-08-07T02:13:19;100552.59;;;15.09
77728;BMP280;68312;53.502;10.030;2023-08-07T02:15:44;100553.31;;;15.06
77728;BMP280;68312;53.502;10.030;2023-08-07T02:18:10;100544.94;;;15.04
77728;BMP280;68312;53.502;10.030;2023-08-07T02:20:35;100539.03;;;15.10
77728;BMP280;68312;53.502;10.030;2023-08-07T02:23:00;100547.47;;;15.16
77728;BMP280;68312;53.502;10.030;2023-08-07T02:25:26;100547.41;;;15.12
77728;BMP280;68312;53.502;10.030;2023-08-07T02:27:51;100535.56;;;15.06
77728;BMP280;68312;53.502;10.030;2023-08-07T02:30:17;100534.38;;;15.04
77728;BMP280;68312;53.502;10.030;2023-08-07T02:32:42;100543.69;;;15.17
77728;BMP280;68312;53.502;10.030;2023-08-07T02:35:09;100533.88;;;15.17
77728;BMP280;68312;53.502;10.030;2023-08-07T02:37:36;100540.63;;;15.15
77728;BMP280;68312;53.502;10.030;2023-08-07T02:40:01;100536.03;;;15.12
77728;BMP280;68312;53.502;10.030;2023-08-07T02:42:27;100537.50;;;15.09
77728;BMP280;68312;53.502;10.030;2023-08-07T02:44:52;100535.31;;;15.15
77728;BMP280;68312;53.502;10.030;2023-08-07T02:47:17;100542.09;;;15.12
77728;BMP280;68312;53.502;10.030;2023-08-07T02:49:43;100527.28;;;15.30
77728;BMP280;68312;53.502;10.030;2023-08-07T02:52:08;100536.25;;;15.22
77728;BMP280;68312;53.502;10.030;2023-08-07T02:54:34;100551.34;;;15.22
77728;BMP280;68312;53.502;10.030;2023-08-07T02:56:59;100553.97;;;15.22
77728;BMP280;68312;53.502;10.030;2023-08-07T02:59:24;100545.25;;;15.18
77728;BMP280;68312;53.502;10.030;2023-08-07T03:01:50;100546.75;;;15.19
77728;BMP280;68312;53.502;10.030;2023-08-07T03:04:15;100541.47;;;15.19
77728;BMP280;68312;53.502;10.030;2023-08-07T03:06:41;100533.94;;;15.21
77728;BMP280;68312;53.502;10.030;2023-08-07T03:09:06;100534.66;;;15.18
77728;BMP280;68312;53.502;10.030;2023-08-07T03:11:32;100540.75;;;15.22
77728;BMP280;68312;53.502;10.030;2023-08-07T03:13:57;100526.81;;;15.24
77728;BMP280;68312;53.502;10.030;2023-08-07T03:16:23;100540.00;;;15.21
77728;BMP280;68312;53.502;10.030;2023-08-07T03:18:48;100536.19;;;15.19
77728;BMP280;68312;53.502;10.030;2023-08-07T03:21:13;100548.25;;;15.20
77728;BMP280;68312;53.502;10.030;2023-08-07T03:23:39;100551.63;;;15.17
77728;BMP280;68312;53.502;10.030;2023-08-07T03:26:07;100545.16;;;15.14
77728;BMP280;68312;53.502;10.030;2023-08-07T03:28:35;100543.56;;;15.10
77728;BMP280;68312;53.502;10.030;2023-08-07T03:31:02;100542.72;;;15.06
77728;BMP280;68312;53.502;10.030;2023-08-07T03:33:27;100536.25;;;15.03
77728;BMP280;68312;53.502;10.030;2023-08-07T03:35:53;100544.19;;;15.03
77728;BMP280;68312;53.502;10.030;2023-08-07T03:38:18;100545.91;;;15.15
77728;BMP280;68312;53.502;10.030;2023-08-07T03:40:44;100550.38;;;15.11
77728;BMP280;68312;53.502;10.030;2023-08-07T03:43:09;100543.22;;;15.11
77728;BMP280;68312;53.502;10.030;2023-08-07T03:45:35;100550.03;;;15.12
77728;BMP280;68312;53.502;10.030;2023-08-07T03:48:00;100543.22;;;15.11
77728;BMP280;68312;53.502;10.030;2023-08-07T03:50:26;100548.84;;;15.10
77728;BMP280;68312;53.502;10.030;2023-08-07T03:52:51;100551.69;;;15.20
77728;BMP280;68312;53.502;10.030;2023-08-07T03:55:17;100540.81;;;15.25
77728;BMP280;68312;53.502;10.030;2023-08-07T03:57:43;100540.06;;;15.24
77728;BMP280;68312;53.502;10.030;2023-08-07T04:00:09;100548.41;;;15.26
77728;BMP280;68312;53.502;10.030;2023-08-07T04:02:35;100556.69;;;15.25
77728;BMP280;68312;53.502;10.030;2023-08-07T04:05:01;100544.59;;;15.24
77728;BMP280;68312;53.502;10.030;2023-08-07T04:07:26;100555.16;;;15.24
77728;BMP280;68312;53.502;10.030;2023-08-07T04:09:51;100546.75;;;15.19
77728;BMP280;68312;53.502;10.030;2023-08-07T04:12:17;100540.75;;;15.22
77728;BMP280;68312;53.502;10.030;2023-08-07T04:14:42;100536.25;;;15.22
77728;BMP280;68312;53.502;10.030;2023-08-07T04:17:08;100535.63;;;15.28
77728;BMP280;68312;53.502;10.030;2023-08-07T04:19:33;100541.56;;;15.25
77728;BMP280;68312;53.502;10.030;2023-08-07T04:21:59;100530.59;;;15.24
77728;BMP280;68312;53.502;10.030;2023-08-07T04:24:24;100536.38;;;15.29
77728;BMP280;68312;53.502;10.030;2023-08-07T04:26:50;100535.22;;;15.30
77728;BMP280;68312;53.502;10.030;2023-08-07T04:29:15;100536.38;;;15.29
77728;BMP280;68312;53.502;10.030;2023-08-07T04:31:41;100537.88;;;15.30
77728;BMP280;68312;53.502;10.030;2023-08-07T04:34:06;100540.13;;;15.28
77728;BMP280;68312;53.502;10.030;2023-08-07T04:36:31;100549.94;;;15.27
77728;BMP280;68312;53.502;10.030;2023-08-07T04:38:58;100553.66;;;15.23
77728;BMP280;68312;53.502;10.030;2023-08-07T04:41:23;100556.63;;;15.22
77728;BMP280;68312;53.502;10.030;2023-08-07T04:43:49;100569.59;;;15.26
77728;BMP280;68312;53.502;10.030;2023-08-07T04:46:14;100570.69;;;15.25
77728;BMP280;68312;53.502;10.030;2023-08-07T04:48:40;100565.47;;;15.29
77728;BMP280;68312;53.502;10.030;2023-08-07T04:51:06;100573.41;;;15.29
77728;BMP280;68312;53.502;10.030;2023-08-07T04:53:31;100553.84;;;15.33
77728;BMP280;68312;53.502;10.030;2023-08-07T04:55:57;100565.13;;;15.30
77728;BMP280;68312;53.502;10.030;2023-08-07T04:58:23;100556.56;;;15.37
77728;BMP280;68312;53.502;10.030;2023-08-07T05:00:54;100559.97;;;15.37
77728;BMP280;68312;53.502;10.030;2023-08-07T05:03:20;100561.47;;;15.38
77728;BMP280;68312;53.502;10.030;2023-08-07T05:05:46;100572.84;;;15.39
77728;BMP280;68312;53.502;10.030;2023-08-07T05:08:11;100547.97;;;15.43
77728;BMP280;68312;53.502;10.030;2023-08-07T05:10:36;100563.88;;;15.47
77728;BMP280;68312;53.502;10.030;2023-08-07T05:13:02;100553.41;;;15.50
77728;BMP280;68312;53.502;10.030;2023-08-07T05:15:27;100556.44;;;15.52
77728;BMP280;68312;53.502;10.030;2023-08-07T05:17:55;100562.56;;;15.56
77728;BMP280;68312;53.502;10.030;2023-08-07T05:20:21;100564.06;;;15.57
77728;BMP280;68312;53.502;10.030;2023-08-07T05:22:46;100553.88;;;15.55
77728;BMP280;68312;53.502;10.030;2023-08-07T05:25:12;100558.13;;;15.60
77728;BMP280;68312;53.502;10.030;2023-08-07T05:27:41;100542.63;;;15.62
77728;BMP280;68312;53.502;10.030;2023-08-07T05:30:07;100553.66;;;15.67
77728;BMP280;68312;53.502;10.030;2023-08-07T05:32:33;100546.97;;;15.73
77728;BMP280;68312;53.502;10.030;2023-08-07T05:34:58;100550.97;;;15.86
77728;BMP280;68312;53.502;10.030;2023-08-07T05:37:25;100554.38;;;15.86
77728;BMP280;68312;53.502;10.030;2023-08-07T05:39:51;100551.03;;;15.89
77728;BMP280;68312;53.502;10.030;2023-08-07T05:42:17;100547.56;;;15.85
77728;BMP280;68312;53.502;10.030;2023-08-07T05:44:42;100554.09;;;15.91
77728;BMP280;68312;53.502;10.030;2023-08-07T05:47:08;100555.59;;;15.92
77728;BMP280;68312;53.502;10.030;2023-08-07T05:49:33;100556.50;;;16.00
77728;BMP280;68312;53.502;10.030;2023-08-07T05:51:58;100552.88;;;16.11
77728;BMP280;68312;53.502;10.030;2023-08-07T05:54:25;100554.41;;;16.12
77728;BMP280;68312;53.502;10.030;2023-08-07T05:56:50;100552.13;;;16.10
77728;BMP280;68312;53.502;10.030;2023-08-07T05:59:15;100563.88;;;16.13
77728;BMP280;68312;53.502;10.030;2023-08-07T06:01:41;100565.75;;;16.12
77728;BMP280;68312;53.502;10.030;2023-08-07T06:04:06;100575.31;;;16.17
77728;BMP280;68312;53.502;10.030;2023-08-07T06:06:32;100565.09;;;16.19
77728;BMP280;68312;53.502;10.030;2023-08-07T06:08:59;100556.19;;;16.30
77728;BMP280;68312;53.502;10.030;2023-08-07T06:11:25;100568.41;;;16.38
77728;BMP280;68312;53.502;10.030;2023-08-07T06:13:50;100562.03;;;16.42
77728;BMP280;68312;53.502;10.030;2023-08-07T06:16:16;100565.53;;;16.50
77728;BMP280;68312;53.502;10.030;2023-08-07T06:18:41;100555.41;;;16.55
77728;BMP280;68312;53.502;10.030;2023-08-07T06:21:06;100556.97;;;16.60
77728;BMP280;68312;53.502;10.030;2023-08-07T06:23:33;100565.44;;;16.72
77728;BMP280;68312;53.502;10.030;2023-08-07T06:25:59;100573.44;;;16.75
77728;BMP280;68312;53.502;10.030;2023-08-07T06:28:25;100569.66;;;16.76
77728;BMP280;68312;53.502;10.030;2023-08-07T06:30:51;100563.69;;;16.83
77728;BMP280;68312;53.502;10.030;2023-08-07T06:33:16;100561.38;;;16.81
77728;BMP280;68312;53.502;10.030;2023-08-07T06:35:41;100566.75;;;16.85
77728;BMP280;68312;53.502;10.030;2023-08-07T06:38:08;100558.03;;;16.87
77728;BMP280;68312;53.502;10.030;2023-08-07T06:40:34;100559.66;;;16.95
77728;BMP280;68312;53.502;10.030;2023-08-07T06:43:00;100561.63;;;17.02
77728;BMP280;68312;53.502;10.030;2023-08-07T06:45:25;100550.97;;;16.98
77728;BMP280;68312;53.502;10.030;2023-08-07T06:47:51;100559.72;;;16.99
77728;BMP280;68312;53.502;10.030;2023-08-07T06:50:16;100562.09;;;17.07
77728;BMP280;68312;53.502;10.030;2023-08-07T06:52:42;100562.72;;;16.97
77728;BMP280;68312;53.502;10.030;2023-08-07T06:55:07;100562.38;;;17.02
77728;BMP280;68312;53.502;10.030;2023-08-07T06:57:34;100557.88;;;17.06
77728;BMP280;68312;53.502;10.030;2023-08-07T06:59:59;100563.59;;;17.08
77728;BMP280;68312;53.502;10.030;2023-08-07T07:02:25;100572.53;;;16.93
77728;BMP280;68312;53.502;10.030;2023-08-07T07:04:50;100563.28;;;16.81
77728;BMP280;68312;53.502;10.030;2023-08-07T07:07:16;100583.78;;;16.84
77728;BMP280;68312;53.502;10.030;2023-08-07T07:09:43;100586.84;;;16.86
77728;BMP280;68312;53.502;10.030;2023-08-07T07:12:08;100576.06;;;17.04
77728;BMP280;68312;53.502;10.030;2023-08-07T07:14:34;100588.34;;;17.15
77728;BMP280;68312;53.502;10.030;2023-08-07T07:16:59;100593.50;;;17.05
77728;BMP280;68312;53.502;10.030;2023-08-07T07:19:25;100605.28;;;16.75
77728;BMP280;68312;53.502;10.030;2023-08-07T07:21:51;100587.22;;;16.30
77728;BMP280;68312;53.502;10.030;2023-08-07T07:24:17;100589.22;;;16.10
77728;BMP280;68312;53.502;10.030;2023-08-07T07:26:42;100597.19;;;16.14
77728;BMP280;68312;53.502;10.030;2023-08-07T07:29:08;100599.66;;;16.26
77728;BMP280;68312;53.502;10.030;2023-08-07T07:31:34;100603.06;;;16.52
77728;BMP280;68312;53.502;10.030;2023-08-07T07:33:59;100602.50;;;16.65
77728;BMP280;68312;53.502;10.030;2023-08-07T07:36:25;100602.09;;;16.63
77728;BMP280;68312;53.502;10.030;2023-08-07T07:38:50;100597.56;;;16.67
77728;BMP280;68312;53.502;10.030;2023-08-07T07:41:16;100605.19;;;16.68
77728;BMP280;68312;53.502;10.030;2023-08-07T07:43:42;100605.84;;;16.62
77728;BMP280;68312;53.502;10.030;2023-08-07T07:46:08;100606.34;;;16.71
77728;BMP280;68312;53.502;10.030;2023-08-07T07:48:34;100608.44;;;16.84
77728;BMP280;68312;53.502;10.030;2023-08-07T07:51:01;100620.44;;;17.04
77728;BMP280;68312;53.502;10.030;2023-08-07T07:53:28;100599.22;;;17.43
77728;BMP280;68312;53.502;10.030;2023-08-07T07:55:54;100597.59;;;17.71
77728;BMP280;68312;53.502;10.030;2023-08-07T07:58:20;100592.91;;;18.00
77728;BMP280;68312;53.502;10.030;2023-08-07T08:00:46;100588.13;;;18.23
77728;BMP280;68312;53.502;10.030;2023-08-07T08:03:12;100603.41;;;18.40
77728;BMP280;68312;53.502;10.030;2023-08-07T08:05:38;100594.56;;;18.22
77728;BMP280;68312;53.502;10.030;2023-08-07T08:08:06;100587.88;;;18.48
77728;BMP280;68312;53.502;10.030;2023-08-07T08:10:35;100596.97;;;18.47
77728;BMP280;68312;53.502;10.030;2023-08-07T08:13:01;100601.22;;;17.99
77728;BMP280;68312;53.502;10.030;2023-08-07T08:15:29;100619.03;;;17.52
77728;BMP280;68312;53.502;10.030;2023-08-07T08:17:55;100626.81;;;17.32
77728;BMP280;68312;53.502;10.030;2023-08-07T08:20:20;100644.78;;;16.84
77728;BMP280;68312;53.502;10.030;2023-08-07T08:22:46;100661.84;;;16.57
77728;BMP280;68312;53.502;10.030;2023-08-07T08:25:12;100659.50;;;16.52
77728;BMP280;68312;53.502;10.030;2023-08-07T08:27:39;100653.59;;;16.62
77728;BMP280;68312;53.502;10.030;2023-08-07T08:30:05;100659.16;;;16.54
77728;BMP280;68312;53.502;10.030;2023-08-07T08:32:32;100661.84;;;16.57
77728;BMP280;68312;53.502;10.030;2023-08-07T08:34:57;100673.00;;;16.66
77728;BMP280;68312;53.502;10.030;2023-08-07T08:37:23;100681.16;;;16.83
77728;BMP280;68312;53.502;10.030;2023-08-07T08:39:48;100673.03;;;16.69
77728;BMP280;68312;53.502;10.030;2023-08-07T08:42:14;100674.91;;;16.69
77728;BMP280;68312;53.502;10.030;2023-08-07T08:44:47;100665.22;;;16.80
77728;BMP280;68312;53.502;10.030;2023-08-07T08:47:16;100672.94;;;16.91
77728;BMP280;68312;53.502;10.030;2023-08-07T08:49:56;100669.97;;;17.61
77728;BMP280;68312;53.502;10.030;2023-08-07T08:52:28;100663.16;;;18.52
77728;BMP280;68312;53.502;10.030;2023-08-07T08:54:55;100668.03;;;18.44
77728;BMP280;68312;53.502;10.030;2023-08-07T08:57:22;100661.19;;;19.33
77728;BMP280;68312;53.502;10.030;2023-08-07T08:59:49;100663.16;;;19.95
77728;BMP280;68312;53.502;10.030;2023-08-07T09:02:16;100655.53;;;20.10
77728;BMP280;68312;53.502;10.030;2023-08-07T09:04:42;100666.81;;;19.04
77728;BMP280;68312;53.502;10.030;2023-08-07T09:07:09;100667.56;;;19.01
77728;BMP280;68312;53.502;10.030;2023-08-07T09:09:34;100674.97;;;18.62
77728;BMP280;68312;53.502;10.030;2023-08-07T09:12:01;100699.81;;;18.90
77728;BMP280;68312;53.502;10.030;2023-08-07T09:14:29;100665.06;;;20.04
77728;BMP280;68312;53.502;10.030;2023-08-07T09:17:00;100659.88;;;20.89
77728;BMP280;68312;53.502;10.030;2023-08-07T09:19:26;100680.19;;;20.59
77728;BMP280;68312;53.502;10.030;2023-08-07T09:21:52;100659.81;;;21.03
77728;BMP280;68312;53.502;10.030;2023-08-07T09:24:18;100669.94;;;20.47
77728;BMP280;68312;53.502;10.030;2023-08-07T09:26:44;100650.97;;;20.04
77728;BMP280;68312;53.502;10.030;2023-08-07T09:29:10;100664.06;;;20.90
77728;BMP280;68312;53.502;10.030;2023-08-07T09:31:36;100675.09;;;21.02
77728;BMP280;68312;53.502;10.030;2023-08-07T09:34:03;100660.00;;;21.32
77728;BMP280;68312;53.502;10.030;2023-08-07T09:36:33;100647.03;;;21.34
77728;BMP280;68312;53.502;10.030;2023-08-07T09:39:03;100661.47;;;20.76
77728;BMP280;68312;53.502;10.030;2023-08-07T09:41:29;100663.38;;;20.72
77728;BMP280;68312;53.502;10.030;2023-08-07T09:43:56;100663.09;;;21.27
77728;BMP280;68312;53.502;10.030;2023-08-07T09:46:25;100652.50;;;21.13
77728;BMP280;68312;53.502;10.030;2023-08-07T09:48:50;100654.78;;;22.74
77728;BMP280;68312;53.502;10.030;2023-08-07T09:51:16;100669.69;;;21.66
77728;BMP280;68312;53.502;10.030;2023-08-07T09:53:41;100656.19;;;20.55
77728;BMP280;68312;53.502;10.030;2023-08-07T09:56:07;100700.81;;;19.52
77728;BMP280;68312;53.502;10.030;2023-08-07T09:58:33;100684.59;;;18.87
77728;BMP280;68312;53.502;10.030;2023-08-07T10:01:00;100679.47;;;18.51
77728;BMP280;68312;53.502;10.030;2023-08-07T10:03:28;100690.78;;;18.38
77728;BMP280;68312;53.502;10.030;2023-08-07T10:05:54;100703.78;;;18.49
77728;BMP280;68312;53.502;10.030;2023-08-07T10:08:21;100687.81;;;19.33
77728;BMP280;68312;53.502;10.030;2023-08-07T10:10:47;100688.69;;;19.68
77728;BMP280;68312;53.502;10.030;2023-08-07T10:13:13;100696.94;;;19.25
77728;BMP280;68312;53.502;10.030;2023-08-07T10:15:39;100703.81;;;19.30
77728;BMP280;68312;53.502;10.030;2023-08-07T10:18:07;100699.13;;;18.99
77728;BMP280;68312;53.502;10.030;2023-08-07T10:20:33;100698.56;;;19.64
77728;BMP280;68312;53.502;10.030;2023-08-07T10:23:09;100694.41;;;19.87
77728;BMP280;68312;53.502;10.030;2023-08-07T10:25:40;100690.84;;;20.66
77728;BMP280;68312;53.502;10.030;2023-08-07T10:28:13;100693.25;;;21.78
77728;BMP280;68312;53.502;10.030;2023-08-07T10:30:42;100681.66;;;21.51
77728;BMP280;68312;53.502;10.030;2023-08-07T10:33:09;100678.69;;;20.65
77728;BMP280;68312;53.502;10.030;2023-08-07T10:35:35;100675.72;;;20.01
77728;BMP280;68312;53.502;10.030;2023-08-07T10:38:08;100702.69;;;19.31
77728;BMP280;68312;53.502;10.030;2023-08-07T10:43:24;100718.56;;;17.97
77728;BMP280;68312;53.502;10.030;2023-08-07T10:45:50;100724.81;;;17.79
77728;BMP280;68312;53.502;10.030;2023-08-07T10:48:20;100708.44;;;17.74
77728;BMP280;68312;53.502;10.030;2023-08-07T10:53:40;100703.75;;;17.96
77728;BMP280;68312;53.502;10.030;2023-08-07T10:56:09;100706.31;;;18.96
77728;BMP280;68312;53.502;10.030;2023-08-07T10:58:41;100704.28;;;20.28
77728;BMP280;68312;53.502;10.030;2023-08-07T11:04:09;100698.56;;;20.43
77728;BMP280;68312;53.502;10.030;2023-08-07T11:06:37;100699.69;;;19.63
77728;BMP280;68312;53.502;10.030;2023-08-07T11:09:05;100718.00;;;20.20
77728;BMP280;68312;53.502;10.030;2023-08-07T11:11:43;100696.69;;;20.16
77728;BMP280;68312;53.502;10.030;2023-08-07T11:14:11;100687.16;;;21.27
77728;BMP280;68312;53.502;10.030;2023-08-07T11:16:38;100690.31;;;21.05
77728;BMP280;68312;53.502;10.030;2023-08-07T11:19:04;100688.97;;;21.40
77728;BMP280;68312;53.502;10.030;2023-08-07T11:21:31;100691.38;;;21.21
77728;BMP280;68312;53.502;10.030;2023-08-07T11:23:58;100709.19;;;20.53
77728;BMP280;68312;53.502;10.030;2023-08-07T11:26:23;100732.09;;;19.82
77728;BMP280;68312;53.502;10.030;2023-08-07T11:28:51;100749.16;;;18.70
77728;BMP280;68312;53.502;10.030;2023-08-07T11:31:17;100748.19;;;17.31
77728;BMP280;68312;53.502;10.030;2023-08-07T11:33:44;100759.94;;;17.05
77728;BMP280;68312;53.502;10.030;2023-08-07T11:36:11;100774.56;;;17.21
77728;BMP280;68312;53.502;10.030;2023-08-07T11:38:42;100760.44;;;17.75
77728;BMP280;68312;53.502;10.030;2023-08-07T11:41:08;100748.16;;;18.35
77728;BMP280;68312;53.502;10.030;2023-08-07T11:43:35;100744.66;;;18.81
77728;BMP280;68312;53.502;10.030;2023-08-07T11:46:03;100731.09;;;18.43
77728;BMP280;68312;53.502;10.030;2023-08-07T11:48:33;100735.06;;;18.66
77728;BMP280;68312;53.502;10.030;2023-08-07T11:51:00;100740.53;;;18.90
77728;BMP280;68312;53.502;10.030;2023-08-07T11:53:32;100730.56;;;20.16
77728;BMP280;68312;53.502;10.030;2023-08-07T11:56:01;100745.81;;;20.43
77728;BMP280;68312;53.502;10.030;2023-08-07T11:58:34;100751.16;;;20.05
77728;BMP280;68312;53.502;10.030;2023-08-07T12:01:04;100737.38;;;19.65
77728;BMP280;68312;53.502;10.030;2023-08-07T12:03:33;100738.47;;;19.40
77728;BMP280;68312;53.502;10.030;2023-08-07T12:06:04;100751.78;;;19.40
77728;BMP280;68312;53.502;10.030;2023-08-07T12:08:32;100755.59;;;19.36
77728;BMP280;68312;53.502;10.030;2023-08-07T12:11:06;100761.81;;;19.81
77728;BMP280;68312;53.502;10.030;2023-08-07T12:13:43;100748.50;;;20.26
77728;BMP280;68312;53.502;10.030;2023-08-07T12:16:10;100743.09;;;19.60
77728;BMP280;68312;53.502;10.030;2023-08-07T12:18:52;100757.13;;;18.70
77728;BMP280;68312;53.502;10.030;2023-08-07T12:21:20;100785.75;;;17.66
77728;BMP280;68312;53.502;10.030;2023-08-07T12:23:55;100806.38;;;16.44
77728;BMP280;68312;53.502;10.030;2023-08-07T12:26:21;100799.28;;;16.30
77728;BMP280;68312;53.502;10.030;2023-08-07T12:28:46;100812.56;;;16.33
77728;BMP280;68312;53.502;10.030;2023-08-07T12:31:12;100806.75;;;16.68
77728;BMP280;68312;53.502;10.030;2023-08-07T12:33:37;100792.66;;;17.38
77728;BMP280;68312;53.502;10.030;2023-08-07T12:36:02;100780.28;;;18.20
77728;BMP280;68312;53.502;10.030;2023-08-07T12:38:28;100779.84;;;18.57
77728;BMP280;68312;53.502;10.030;2023-08-07T12:40:54;100769.47;;;18.98
77728;BMP280;68312;53.502;10.030;2023-08-07T12:43:21;100762.34;;;19.16
77728;BMP280;68312;53.502;10.030;2023-08-07T12:45:46;100769.56;;;19.16
77728;BMP280;68312;53.502;10.030;2023-08-07T12:48:13;100767.78;;;18.70
77728;BMP280;68312;53.502;10.030;2023-08-07T12:50:39;100770.66;;;18.48
77728;BMP280;68312;53.502;10.030;2023-08-07T12:53:06;100782.31;;;18.33
77728;BMP280;68312;53.502;10.030;2023-08-07T12:55:33;100787.94;;;17.89
77728;BMP280;68312;53.502;10.030;2023-08-07T12:57:58;100791.63;;;17.78
77728;BMP280;68312;53.502;10.030;2023-08-07T13:00:24;100789.56;;;17.65
77728;BMP280;68312;53.502;10.030;2023-08-07T13:02:50;100800.91;;;17.62
77728;BMP280;68312;53.502;10.030;2023-08-07T13:05:17;100791.41;;;17.28
77728;BMP280;68312;53.502;10.030;2023-08-07T13:07:44;100813.19;;;16.89
77728;BMP280;68312;53.502;10.030;2023-08-07T13:10:15;100825.88;;;16.55
77728;BMP280;68312;53.502;10.030;2023-08-07T13:12:43;100824.28;;;16.51
77728;BMP280;68312;53.502;10.030;2023-08-07T13:15:12;100833.25;;;16.65
77728;BMP280;68312;53.502;10.030;2023-08-07T13:17:39;100826.88;;;17.75
77728;BMP280;68312;53.502;10.030;2023-08-07T13:20:06;100824.66;;;17.80
77728;BMP280;68312;53.502;10.030;2023-08-07T13:22:39;100818.50;;;18.05
77728;BMP280;68312;53.502;10.030;2023-08-07T13:25:06;100805.53;;;18.00
77728;BMP280;68312;53.502;10.030;2023-08-07T13:27:33;100820.09;;;18.13
77728;BMP280;68312;53.502;10.030;2023-08-07T13:29:59;100814.63;;;17.67
77728;BMP280;68312;53.502;10.030;2023-08-07T13:32:26;100813.63;;;17.78
77728;BMP280;68312;53.502;10.030;2023-08-07T13:34:52;100831.75;;;17.69
77728;BMP280;68312;53.502;10.030;2023-08-07T13:37:18;100826.97;;;18.60
77728;BMP280;68312;53.502;10.030;2023-08-07T13:39:43;100815.69;;;18.70
77728;BMP280;68312;53.502;10.030;2023-08-07T13:42:09;100821.78;;;18.74
77728;BMP280;68312;53.502;10.030;2023-08-07T13:44:36;100806.28;;;18.90
77728;BMP280;68312;53.502;10.030;2023-08-07T13:47:02;100811.38;;;18.55
77728;BMP280;68312;53.502;10.030;2023-08-07T13:49:28;100842.22;;;18.20
77728;BMP280;68312;53.502;10.030;2023-08-07T13:51:54;100849.03;;;17.57